sensor_id;sensor_type;location;lat;lon;timestamp;P1;durP1;ratioP1;P2;durP2;ratioP2
22007;SDS011;11168;56.976;24.168;2022-10-16T00:00:02;23.52;;;15.88;;
22007;SDS011;11168;56.976;24.168;2022-10-16T00:02:30;21.23;;;14.80;;
22007;SDS011;11168;56.976;24.168;2022-10-16T00:04:57;24.25;;;16.02;;
22007;SDS011;11168;56.976;24.168;2022-10-16T00:07:24;22.35;;;15.80;;
22007;SDS011;11168;56.976;24.168;2022-10-16T00:09:52;25.67;;;16.20;;
22007;SDS011;11168;56.976;24.168;2022-10-16T00:12:19;23.10;;;15.35;;
22007;SDS011;11168;56.976;24.168;2022-10-16T00:14:46;22.58;;;14.75;;
22007;SDS011;11168;56.976;24.168;2022-10-16T00:17:14;25.02;;;15.65;;
22007;SDS011;11168;56.976;24.168;2022-10-16T00:19:41;25.00;;;15.48;;
22007;SDS011;11168;56.976;24.168;2022-10-16T00:22:08;21.75;;;15.15;;
22007;SDS011;11168;56.976;24.168;2022-10-16T00:24:36;25.20;;;16.33;;
22007;SDS011;11168;56.976;24.168;2022-10-16T00:27:03;23.65;;;16.08;;
22007;SDS011;11168;56.976;24.168;2022-10-16T00:29:30;25.55;;;16.90;;
22007;SDS011;11168;56.976;24.168;2022-10-16T00:31:58;21.25;;;15.73;;
22007;SDS011;11168;56.976;24.168;2022-10-16T00:34:25;27.58;;;16.42;;
22007;SDS011;11168;56.976;24.168;2022-10-16T00:36:52;27.67;;;16.35;;
22007;SDS011;11168;56.976;24.168;2022-10-16T00:39:20;23.80;;;16.30;;
22007;SDS011;11168;56.976;24.168;2022-10-16T00:41:48;23.85;;;16.38;;
22007;SDS011;11168;56.976;24.168;2022-10-16T00:47:01;26.08;;;17.15;;
22007;SDS011;11168;56.976;24.168;2022-10-16T00:49:28;23.48;;;16.67;;
22007;SDS011;11168;56.976;24.168;2022-10-16T00:51:56;25.20;;;16.33;;
22007;SDS011;11168;56.976;24.168;2022-10-16T00:54:26;25.55;;;17.13;;
22007;SDS011;11168;56.976;24.168;2022-10-16T00:56:54;27.98;;;16.10;;
22007;SDS011;11168;56.976;24.168;2022-10-16T01:01:56;29.30;;;17.75;;
22007;SDS011;11168;56.976;24.168;2022-10-16T01:04:24;24.30;;;16.77;;
22007;SDS011;11168;56.976;24.168;2022-10-16T01:07:07;24.25;;;16.80;;
22007;SDS011;11168;56.976;24.168;2022-10-16T01:12:09;22.88;;;15.88;;
22007;SDS011;11168;56.976;24.168;2022-10-16T01:22:25;25.27;;;16.95;;
22007;SDS011;11168;56.976;24.168;2022-10-16T01:24:54;23.38;;;16.98;;
22007;SDS011;11168;56.976;24.168;2022-10-16T01:27:26;24.60;;;17.08;;
22007;SDS011;11168;56.976;24.168;2022-10-16T01:33:10;24.38;;;17.50;;
22007;SDS011;11168;56.976;24.168;2022-10-16T01:35:18;29.67;;;17.50;;
22007;SDS011;11168;56.976;24.168;2022-10-16T01:37:55;30.75;;;17.17;;
22007;SDS011;11168;56.976;24.168;2022-10-16T01:40:26;30.67;;;18.02;;
22007;SDS011;11168;56.976;24.168;2022-10-16T01:43:12;25.27;;;17.75;;
22007;SDS011;11168;56.976;24.168;2022-10-16T01:45:41;28.08;;;18.08;;
22007;SDS011;11168;56.976;24.168;2022-10-16T01:48:09;28.80;;;18.00;;
22007;SDS011;11168;56.976;24.168;2022-10-16T01:50:39;27.77;;;17.83;;
22007;SDS011;11168;56.976;24.168;2022-10-16T01:53:09;24.58;;;17.85;;
22007;SDS011;11168;56.976;24.168;2022-10-16T01:55:37;28.10;;;18.30;;
22007;SDS011;11168;56.976;24.168;2022-10-16T01:58:07;26.48;;;18.55;;
22007;SDS011;11168;56.976;24.168;2022-10-16T02:00:36;28.33;;;19.55;;
22007;SDS011;11168;56.976;24.168;2022-10-16T02:03:04;34.67;;;19.70;;
22007;SDS011;11168;56.976;24.168;2022-10-16T02:08:00;30.23;;;20.27;;
22007;SDS011;11168;56.976;24.168;2022-10-16T02:10:31;34.28;;;19.95;;
22007;SDS011;11168;56.976;24.168;2022-10-16T02:15:44;36.05;;;20.85;;
22007;SDS011;11168;56.976;24.168;2022-10-16T02:18:12;31.70;;;21.38;;
22007;SDS011;11168;56.976;24.168;2022-10-16T02:20:44;31.92;;;21.27;;
22007;SDS011;11168;56.976;24.168;2022-10-16T02:23:14;33.88;;;23.42;;
22007;SDS011;11168;56.976;24.168;2022-10-16T02:25:43;32.88;;;22.25;;
22007;SDS011;11168;56.976;24.168;2022-10-16T02:28:18;33.08;;;21.20;;
22007;SDS011;11168;56.976;24.168;2022-10-16T02:30:47;31.52;;;21.67;;
22007;SDS011;11168;56.976;24.168;2022-10-16T02:33:16;35.70;;;22.48;;
22007;SDS011;11168;56.976;24.168;2022-10-16T02:35:44;31.10;;;22.00;;
22007;SDS011;11168;56.976;24.168;2022-10-16T02:38:12;35.90;;;23.77;;
22007;SDS011;11168;56.976;24.168;2022-10-16T02:40:40;37.30;;;22.70;;
22007;SDS011;11168;56.976;24.168;2022-10-16T02:43:08;38.38;;;23.08;;
22007;SDS011;11168;56.976;24.168;2022-10-16T02:45:36;33.60;;;23.10;;
22007;SDS011;11168;56.976;24.168;2022-10-16T02:48:03;37.00;;;23.95;;
22007;SDS011;11168;56.976;24.168;2022-10-16T02:50:31;37.22;;;23.13;;
22007;SDS011;11168;56.976;24.168;2022-10-16T02:52:58;32.75;;;23.02;;
22007;SDS011;11168;56.976;24.168;2022-10-16T02:55:25;35.78;;;22.83;;
22007;SDS011;11168;56.976;24.168;2022-10-16T02:57:54;35.28;;;23.17;;
22007;SDS011;11168;56.976;24.168;2022-10-16T03:00:21;39.35;;;24.42;;
22007;SDS011;11168;56.976;24.168;2022-10-16T03:02:48;36.65;;;24.17;;
22007;SDS011;11168;56.976;24.168;2022-10-16T03:05:16;37.15;;;24.15;;
22007;SDS011;11168;56.976;24.168;2022-10-16T03:07:43;33.67;;;23.13;;
22007;SDS011;11168;56.976;24.168;2022-10-16T03:10:10;38.58;;;25.05;;
22007;SDS011;11168;56.976;24.168;2022-10-16T03:12:38;35.58;;;24.27;;
22007;SDS011;11168;56.976;24.168;2022-10-16T03:15:05;43.75;;;24.67;;
22007;SDS011;11168;56.976;24.168;2022-10-16T03:17:33;36.67;;;24.17;;
22007;SDS011;11168;56.976;24.168;2022-10-16T03:20:00;43.17;;;25.77;;
22007;SDS011;11168;56.976;24.168;2022-10-16T03:22:28;39.88;;;24.77;;
22007;SDS011;11168;56.976;24.168;2022-10-16T03:24:55;43.75;;;25.35;;
22007;SDS011;11168;56.976;24.168;2022-10-16T03:27:22;38.78;;;25.38;;
22007;SDS011;11168;56.976;24.168;2022-10-16T03:29:50;45.75;;;25.90;;
22007;SDS011;11168;56.976;24.168;2022-10-16T03:32:18;40.25;;;26.25;;
22007;SDS011;11168;56.976;24.168;2022-10-16T03:34:46;42.22;;;25.73;;
22007;SDS011;11168;56.976;24.168;2022-10-16T03:37:13;39.53;;;25.98;;
22007;SDS011;11168;56.976;24.168;2022-10-16T03:39:40;40.55;;;26.17;;
22007;SDS011;11168;56.976;24.168;2022-10-16T03:42:08;42.08;;;25.90;;
22007;SDS011;11168;56.976;24.168;2022-10-16T03:44:35;39.47;;;26.02;;
22007;SDS011;11168;56.976;24.168;2022-10-16T03:47:02;39.22;;;25.85;;
22007;SDS011;11168;56.976;24.168;2022-10-16T03:49:29;40.80;;;25.85;;
22007;SDS011;11168;56.976;24.168;2022-10-16T03:51:57;40.45;;;26.73;;
22007;SDS011;11168;56.976;24.168;2022-10-16T03:54:24;42.15;;;26.73;;
22007;SDS011;11168;56.976;24.168;2022-10-16T03:56:51;39.33;;;25.85;;
22007;SDS011;11168;56.976;24.168;2022-10-16T03:59:19;41.88;;;25.70;;
22007;SDS011;11168;56.976;24.168;2022-10-16T04:01:46;39.92;;;26.23;;
22007;SDS011;11168;56.976;24.168;2022-10-16T04:04:13;42.28;;;25.85;;
22007;SDS011;11168;56.976;24.168;2022-10-16T04:06:40;44.67;;;26.50;;
22007;SDS011;11168;56.976;24.168;2022-10-16T04:09:08;42.30;;;26.42;;
22007;SDS011;11168;56.976;24.168;2022-10-16T04:11:35;41.40;;;26.27;;
22007;SDS011;11168;56.976;24.168;2022-10-16T04:14:02;38.03;;;25.42;;
22007;SDS011;11168;56.976;24.168;2022-10-16T04:16:30;37.95;;;25.63;;
22007;SDS011;11168;56.976;24.168;2022-10-16T04:18:57;40.67;;;26.27;;
22007;SDS011;11168;56.976;24.168;2022-10-16T04:21:24;39.35;;;25.20;;
22007;SDS011;11168;56.976;24.168;2022-10-16T04:23:52;43.05;;;25.70;;
22007;SDS011;11168;56.976;24.168;2022-10-16T04:26:19;41.78;;;25.90;;
22007;SDS011;11168;56.976;24.168;2022-10-16T04:28:46;43.50;;;27.05;;
22007;SDS011;11168;56.976;24.168;2022-10-16T04:31:14;40.63;;;25.42;;
22007;SDS011;11168;56.976;24.168;2022-10-16T04:33:44;39.70;;;25.55;;
22007;SDS011;11168;56.976;24.168;2022-10-16T04:36:11;41.40;;;25.92;;
22007;SDS011;11168;56.976;24.168;2022-10-16T04:38:39;42.85;;;25.05;;
22007;SDS011;11168;56.976;24.168;2022-10-16T04:41:06;36.95;;;24.13;;
22007;SDS011;11168;56.976;24.168;2022-10-16T04:43:34;40.30;;;24.83;;
22007;SDS011;11168;56.976;24.168;2022-10-16T04:46:04;41.88;;;24.73;;
22007;SDS011;11168;56.976;24.168;2022-10-16T04:48:31;38.55;;;24.63;;
22007;SDS011;11168;56.976;24.168;2022-10-16T04:50:58;41.45;;;26.05;;
22007;SDS011;11168;56.976;24.168;2022-10-16T04:53:26;39.95;;;25.38;;
22007;SDS011;11168;56.976;24.168;2022-10-16T04:55:53;41.50;;;25.23;;
22007;SDS011;11168;56.976;24.168;2022-10-16T04:58:21;42.05;;;25.52;;
22007;SDS011;11168;56.976;24.168;2022-10-16T05:00:48;40.45;;;25.77;;
22007;SDS011;11168;56.976;24.168;2022-10-16T05:03:15;38.92;;;25.20;;
22007;SDS011;11168;56.976;24.168;2022-10-16T05:05:43;41.78;;;25.95;;
22007;SDS011;11168;56.976;24.168;2022-10-16T05:08:12;41.47;;;24.90;;
22007;SDS011;11168;56.976;24.168;2022-10-16T05:10:43;42.30;;;25.52;;
22007;SDS011;11168;56.976;24.168;2022-10-16T05:13:11;44.53;;;26.95;;
22007;SDS011;11168;56.976;24.168;2022-10-16T05:15:38;45.78;;;28.23;;
22007;SDS011;11168;56.976;24.168;2022-10-16T05:18:06;46.97;;;26.73;;
22007;SDS011;11168;56.976;24.168;2022-10-16T05:20:33;48.25;;;28.20;;
22007;SDS011;11168;56.976;24.168;2022-10-16T05:23:00;46.53;;;27.23;;
22007;SDS011;11168;56.976;24.168;2022-10-16T05:25:28;48.53;;;28.60;;
22007;SDS011;11168;56.976;24.168;2022-10-16T05:27:55;49.38;;;29.13;;
22007;SDS011;11168;56.976;24.168;2022-10-16T05:30:23;53.90;;;29.27;;
22007;SDS011;11168;56.976;24.168;2022-10-16T05:32:50;54.13;;;30.27;;
22007;SDS011;11168;56.976;24.168;2022-10-16T05:35:18;51.40;;;29.83;;
22007;SDS011;11168;56.976;24.168;2022-10-16T05:37:46;57.80;;;31.20;;
22007;SDS011;11168;56.976;24.168;2022-10-16T05:40:14;54.22;;;30.88;;
22007;SDS011;11168;56.976;24.168;2022-10-16T05:42:42;60.50;;;31.90;;
22007;SDS011;11168;56.976;24.168;2022-10-16T05:45:10;62.78;;;32.80;;
22007;SDS011;11168;56.976;24.168;2022-10-16T05:47:38;61.03;;;33.70;;
22007;SDS011;11168;56.976;24.168;2022-10-16T05:50:06;64.53;;;34.08;;
22007;SDS011;11168;56.976;24.168;2022-10-16T05:52:33;68.10;;;36.58;;
22007;SDS011;11168;56.976;24.168;2022-10-16T05:55:00;65.72;;;35.67;;
22007;SDS011;11168;56.976;24.168;2022-10-16T05:57:28;66.50;;;34.97;;
22007;SDS011;11168;56.976;24.168;2022-10-16T05:59:56;64.40;;;35.00;;
22007;SDS011;11168;56.976;24.168;2022-10-16T06:02:23;63.97;;;34.72;;
22007;SDS011;11168;56.976;24.168;2022-10-16T06:04:53;71.70;;;35.97;;
22007;SDS011;11168;56.976;24.168;2022-10-16T06:07:21;67.35;;;36.70;;
22007;SDS011;11168;56.976;24.168;2022-10-16T06:09:49;62.78;;;35.40;;
22007;SDS011;11168;56.976;24.168;2022-10-16T06:12:17;64.90;;;35.63;;
22007;SDS011;11168;56.976;24.168;2022-10-16T06:14:44;62.65;;;35.63;;
22007;SDS011;11168;56.976;24.168;2022-10-16T06:17:15;64.85;;;36.05;;
22007;SDS011;11168;56.976;24.168;2022-10-16T06:19:42;65.75;;;35.22;;
22007;SDS011;11168;56.976;24.168;2022-10-16T06:22:10;65.55;;;35.78;;
22007;SDS011;11168;56.976;24.168;2022-10-16T06:24:37;64.72;;;35.53;;
22007;SDS011;11168;56.976;24.168;2022-10-16T06:27:04;61.80;;;34.63;;
22007;SDS011;11168;56.976;24.168;2022-10-16T06:29:32;58.38;;;34.05;;
22007;SDS011;11168;56.976;24.168;2022-10-16T06:31:59;56.85;;;32.70;;
22007;SDS011;11168;56.976;24.168;2022-10-16T06:34:26;57.50;;;34.78;;
22007;SDS011;11168;56.976;24.168;2022-10-16T06:36:54;53.97;;;32.95;;
22007;SDS011;11168;56.976;24.168;2022-10-16T06:39:21;54.05;;;33.30;;
22007;SDS011;11168;56.976;24.168;2022-10-16T06:41:48;59.30;;;33.63;;
22007;SDS011;11168;56.976;24.168;2022-10-16T06:44:16;57.70;;;32.38;;
22007;SDS011;11168;56.976;24.168;2022-10-16T06:46:43;58.05;;;32.10;;
22007;SDS011;11168;56.976;24.168;2022-10-16T06:49:10;55.38;;;32.90;;
22007;SDS011;11168;56.976;24.168;2022-10-16T06:51:38;54.83;;;32.17;;
22007;SDS011;11168;56.976;24.168;2022-10-16T06:54:08;59.80;;;32.28;;
22007;SDS011;11168;56.976;24.168;2022-10-16T06:56:36;60.40;;;34.13;;
22007;SDS011;11168;56.976;24.168;2022-10-16T06:59:03;58.22;;;34.90;;
22007;SDS011;11168;56.976;24.168;2022-10-16T07:01:31;60.45;;;34.40;;
22007;SDS011;11168;56.976;24.168;2022-10-16T07:03:59;60.67;;;33.83;;
22007;SDS011;11168;56.976;24.168;2022-10-16T07:06:27;65.40;;;36.00;;
22007;SDS011;11168;56.976;24.168;2022-10-16T07:08:54;63.47;;;34.30;;
22007;SDS011;11168;56.976;24.168;2022-10-16T07:11:22;63.20;;;34.47;;
22007;SDS011;11168;56.976;24.168;2022-10-16T07:13:50;62.72;;;35.53;;
22007;SDS011;11168;56.976;24.168;2022-10-16T07:18:50;62.60;;;34.75;;
22007;SDS011;11168;56.976;24.168;2022-10-16T07:21:24;65.00;;;35.97;;
22007;SDS011;11168;56.976;24.168;2022-10-16T07:23:59;65.28;;;35.83;;
22007;SDS011;11168;56.976;24.168;2022-10-16T07:26:32;60.88;;;35.53;;
22007;SDS011;11168;56.976;24.168;2022-10-16T07:29:00;64.90;;;36.17;;
22007;SDS011;11168;56.976;24.168;2022-10-16T07:31:28;62.33;;;35.00;;
22007;SDS011;11168;56.976;24.168;2022-10-16T07:33:57;66.40;;;37.42;;
22007;SDS011;11168;56.976;24.168;2022-10-16T07:36:24;62.63;;;37.17;;
22007;SDS011;11168;56.976;24.168;2022-10-16T07:38:52;70.60;;;37.72;;
22007;SDS011;11168;56.976;24.168;2022-10-16T07:41:25;69.72;;;38.60;;
22007;SDS011;11168;56.976;24.168;2022-10-16T07:43:52;71.03;;;37.95;;
22007;SDS011;11168;56.976;24.168;2022-10-16T07:46:21;71.35;;;36.15;;
22007;SDS011;11168;56.976;24.168;2022-10-16T07:48:48;74.03;;;39.85;;
22007;SDS011;11168;56.976;24.168;2022-10-16T07:51:17;62.45;;;37.25;;
22007;SDS011;11168;56.976;24.168;2022-10-16T07:53:44;64.05;;;37.95;;
22007;SDS011;11168;56.976;24.168;2022-10-16T07:56:12;65.13;;;37.15;;
22007;SDS011;11168;56.976;24.168;2022-10-16T07:58:40;67.55;;;37.95;;
22007;SDS011;11168;56.976;24.168;2022-10-16T08:01:08;64.07;;;36.42;;
22007;SDS011;11168;56.976;24.168;2022-10-16T08:03:36;63.60;;;38.67;;
22007;SDS011;11168;56.976;24.168;2022-10-16T08:06:04;65.93;;;37.15;;
22007;SDS011;11168;56.976;24.168;2022-10-16T08:08:34;59.40;;;35.85;;
22007;SDS011;11168;56.976;24.168;2022-10-16T08:11:01;62.35;;;36.15;;
22007;SDS011;11168;56.976;24.168;2022-10-16T08:13:32;66.23;;;35.00;;
22007;SDS011;11168;56.976;24.168;2022-10-16T08:15:59;56.33;;;35.53;;
22007;SDS011;11168;56.976;24.168;2022-10-16T08:18:26;57.35;;;35.42;;
22007;SDS011;11168;56.976;24.168;2022-10-16T08:20:55;58.78;;;35.72;;
22007;SDS011;11168;56.976;24.168;2022-10-16T08:23:25;60.90;;;34.65;;
22007;SDS011;11168;56.976;24.168;2022-10-16T08:25:53;60.03;;;36.40;;
22007;SDS011;11168;56.976;24.168;2022-10-16T08:28:20;55.53;;;34.60;;
22007;SDS011;11168;56.976;24.168;2022-10-16T08:30:47;58.92;;;35.47;;
22007;SDS011;11168;56.976;24.168;2022-10-16T08:33:15;60.58;;;34.58;;
22007;SDS011;11168;56.976;24.168;2022-10-16T08:35:42;52.78;;;34.05;;
22007;SDS011;11168;56.976;24.168;2022-10-16T08:38:09;53.10;;;34.10;;
22007;SDS011;11168;56.976;24.168;2022-10-16T08:40:37;52.72;;;34.40;;
22007;SDS011;11168;56.976;24.168;2022-10-16T08:43:21;56.50;;;34.58;;
22007;SDS011;11168;56.976;24.168;2022-10-16T08:51:06;57.17;;;34.85;;
22007;SDS011;11168;56.976;24.168;2022-10-16T08:53:54;58.25;;;35.60;;
22007;SDS011;11168;56.976;24.168;2022-10-16T08:56:22;57.90;;;35.40;;
22007;SDS011;11168;56.976;24.168;2022-10-16T08:58:51;61.05;;;36.78;;
22007;SDS011;11168;56.976;24.168;2022-10-16T09:01:34;66.28;;;35.97;;
22007;SDS011;11168;56.976;24.168;2022-10-16T09:06:43;59.25;;;35.83;;
22007;SDS011;11168;56.976;24.168;2022-10-16T09:09:16;65.80;;;36.90;;
22007;SDS011;11168;56.976;24.168;2022-10-16T09:17:00;62.45;;;37.72;;
22007;SDS011;11168;56.976;24.168;2022-10-16T09:21:55;66.10;;;36.55;;
22007;SDS011;11168;56.976;24.168;2022-10-16T09:24:24;58.90;;;35.58;;
22007;SDS011;11168;56.976;24.168;2022-10-16T09:26:54;61.95;;;36.42;;
22007;SDS011;11168;56.976;24.168;2022-10-16T09:29:23;62.17;;;36.38;;
22007;SDS011;11168;56.976;24.168;2022-10-16T09:31:52;61.17;;;35.88;;
22007;SDS011;11168;56.976;24.168;2022-10-16T09:36:56;59.95;;;36.70;;
22007;SDS011;11168;56.976;24.168;2022-10-16T09:39:24;57.00;;;35.67;;
22007;SDS011;11168;56.976;24.168;2022-10-16T09:41:51;61.05;;;37.03;;
22007;SDS011;11168;56.976;24.168;2022-10-16T09:46:46;54.53;;;34.80;;
22007;SDS011;11168;56.976;24.168;2022-10-16T09:49:24;62.08;;;36.42;;
22007;SDS011;11168;56.976;24.168;2022-10-16T09:52:13;60.90;;;36.88;;
22007;SDS011;11168;56.976;24.168;2022-10-16T09:54:52;62.28;;;38.08;;
22007;SDS011;11168;56.976;24.168;2022-10-16T09:57:20;62.53;;;37.47;;
22007;SDS011;11168;56.976;24.168;2022-10-16T09:59:49;60.83;;;37.80;;
22007;SDS011;11168;56.976;24.168;2022-10-16T10:02:19;59.53;;;37.70;;
22007;SDS011;11168;56.976;24.168;2022-10-16T10:04:51;57.85;;;36.20;;
22007;SDS011;11168;56.976;24.168;2022-10-16T10:07:26;62.67;;;37.33;;
22007;SDS011;11168;56.976;24.168;2022-10-16T10:09:54;61.67;;;36.38;;
22007;SDS011;11168;56.976;24.168;2022-10-16T10:12:23;59.53;;;35.90;;
22007;SDS011;11168;56.976;24.168;2022-10-16T10:14:56;55.22;;;35.40;;
22007;SDS011;11168;56.976;24.168;2022-10-16T10:17:24;62.17;;;35.38;;
22007;SDS011;11168;56.976;24.168;2022-10-16T10:24:56;59.92;;;36.13;;
22007;SDS011;11168;56.976;24.168;2022-10-16T10:27:32;57.33;;;35.03;;
22007;SDS011;11168;56.976;24.168;2022-10-16T10:30:06;60.78;;;35.60;;
22007;SDS011;11168;56.976;24.168;2022-10-16T10:33:37;61.47;;;36.35;;
22007;SDS011;11168;56.976;24.168;2022-10-16T10:40:52;63.83;;;37.28;;
22007;SDS011;11168;56.976;24.168;2022-10-16T10:45:59;54.53;;;34.83;;
22007;SDS011;11168;56.976;24.168;2022-10-16T10:48:45;58.63;;;34.33;;
22007;SDS011;11168;56.976;24.168;2022-10-16T10:59:27;52.73;;;32.43;;
22007;SDS011;11168;56.976;24.168;2022-10-16T11:02:19;50.67;;;30.25;;
22007;SDS011;11168;56.976;24.168;2022-10-16T11:07:30;46.92;;;30.40;;
22007;SDS011;11168;56.976;24.168;2022-10-16T11:10:02;50.28;;;31.05;;
22007;SDS011;11168;56.976;24.168;2022-10-16T11:12:44;49.92;;;31.25;;
22007;SDS011;11168;56.976;24.168;2022-10-16T11:20:24;47.72;;;30.13;;
22007;SDS011;11168;56.976;24.168;2022-10-16T11:22:54;45.88;;;30.05;;
22007;SDS011;11168;56.976;24.168;2022-10-16T11:25:25;47.00;;;30.23;;
22007;SDS011;11168;56.976;24.168;2022-10-16T11:30:40;51.22;;;29.90;;
22007;SDS011;11168;56.976;24.168;2022-10-16T11:38:03;48.50;;;29.58;;
22007;SDS011;11168;56.976;24.168;2022-10-16T11:40:34;44.25;;;28.58;;
22007;SDS011;11168;56.976;24.168;2022-10-16T11:43:12;47.20;;;30.67;;
22007;SDS011;11168;56.976;24.168;2022-10-16T11:45:48;44.47;;;29.83;;
22007;SDS011;11168;56.976;24.168;2022-10-16T11:51:05;45.85;;;28.67;;
22007;SDS011;11168;56.976;24.168;2022-10-16T11:56:01;42.90;;;29.10;;
22007;SDS011;11168;56.976;24.168;2022-10-16T11:58:32;43.33;;;29.05;;
22007;SDS011;11168;56.976;24.168;2022-10-16T12:08:46;42.40;;;28.33;;
22007;SDS011;11168;56.976;24.168;2022-10-16T12:16:59;44.05;;;28.75;;
22007;SDS011;11168;56.976;24.168;2022-10-16T12:19:29;45.95;;;29.00;;
22007;SDS011;11168;56.976;24.168;2022-10-16T12:21:59;44.17;;;27.95;;
22007;SDS011;11168;56.976;24.168;2022-10-16T12:26:54;43.22;;;27.90;;
22007;SDS011;11168;56.976;24.168;2022-10-16T12:29:24;44.30;;;28.13;;
22007;SDS011;11168;56.976;24.168;2022-10-16T12:31:53;42.00;;;29.08;;
22007;SDS011;11168;56.976;24.168;2022-10-16T12:34:28;45.13;;;28.58;;
22007;SDS011;11168;56.976;24.168;2022-10-16T12:36:55;44.22;;;26.40;;
22007;SDS011;11168;56.976;24.168;2022-10-16T12:39:24;43.60;;;28.52;;
22007;SDS011;11168;56.976;24.168;2022-10-16T12:42:02;43.47;;;28.55;;
22007;SDS011;11168;56.976;24.168;2022-10-16T12:44:35;42.88;;;27.60;;
22007;SDS011;11168;56.976;24.168;2022-10-16T12:47:03;43.03;;;27.92;;
22007;SDS011;11168;56.976;24.168;2022-10-16T12:49:36;40.95;;;27.48;;
22007;SDS011;11168;56.976;24.168;2022-10-16T12:52:04;43.13;;;28.10;;
22007;SDS011;11168;56.976;24.168;2022-10-16T12:54:35;43.72;;;27.63;;
22007;SDS011;11168;56.976;24.168;2022-10-16T13:10:02;41.92;;;26.90;;
22007;SDS011;11168;56.976;24.168;2022-10-16T13:18:13;40.58;;;26.10;;
22007;SDS011;11168;56.976;24.168;2022-10-16T13:28:28;39.67;;;26.80;;
22007;SDS011;11168;56.976;24.168;2022-10-16T13:30:56;42.78;;;27.10;;
22007;SDS011;11168;56.976;24.168;2022-10-16T13:33:28;40.28;;;26.50;;
22007;SDS011;11168;56.976;24.168;2022-10-16T13:35:58;38.10;;;26.60;;
22007;SDS011;11168;56.976;24.168;2022-10-16T13:38:26;38.08;;;26.00;;
22007;SDS011;11168;56.976;24.168;2022-10-16T13:40:57;38.60;;;24.15;;
22007;SDS011;11168;56.976;24.168;2022-10-16T13:45:58;37.13;;;26.07;;
22007;SDS011;11168;56.976;24.168;2022-10-16T13:48:25;37.13;;;25.70;;
22007;SDS011;11168;56.976;24.168;2022-10-16T13:51:03;39.45;;;26.02;;
22007;SDS011;11168;56.976;24.168;2022-10-16T13:53:31;38.30;;;26.05;;
22007;SDS011;11168;56.976;24.168;2022-10-16T13:55:59;39.38;;;25.73;;
22007;SDS011;11168;56.976;24.168;2022-10-16T13:58:27;39.45;;;27.25;;
22007;SDS011;11168;56.976;24.168;2022-10-16T14:01:04;44.42;;;28.75;;
22007;SDS011;11168;56.976;24.168;2022-10-16T14:03:33;44.55;;;28.55;;
22007;SDS011;11168;56.976;24.168;2022-10-16T14:06:02;42.55;;;28.90;;
22007;SDS011;11168;56.976;24.168;2022-10-16T14:08:30;46.53;;;28.70;;
22007;SDS011;11168;56.976;24.168;2022-10-16T14:11:07;47.25;;;28.85;;
22007;SDS011;11168;56.976;24.168;2022-10-16T14:13:36;45.95;;;30.05;;
22007;SDS011;11168;56.976;24.168;2022-10-16T14:16:06;45.13;;;29.10;;
22007;SDS011;11168;56.976;24.168;2022-10-16T14:18:34;46.38;;;29.67;;
22007;SDS011;11168;56.976;24.168;2022-10-16T14:21:05;42.83;;;28.00;;
22007;SDS011;11168;56.976;24.168;2022-10-16T14:23:36;41.92;;;27.58;;
22007;SDS011;11168;56.976;24.168;2022-10-16T14:28:39;42.00;;;27.83;;
22007;SDS011;11168;56.976;24.168;2022-10-16T14:31:41;43.75;;;27.73;;
22007;SDS011;11168;56.976;24.168;2022-10-16T14:34:03;40.17;;;28.10;;
22007;SDS011;11168;56.976;24.168;2022-10-16T14:36:30;40.25;;;27.50;;
22007;SDS011;11168;56.976;24.168;2022-10-16T14:41:27;42.05;;;28.08;;
22007;SDS011;11168;56.976;24.168;2022-10-16T14:43:56;40.25;;;27.85;;
22007;SDS011;11168;56.976;24.168;2022-10-16T14:46:31;38.55;;;26.60;;
22007;SDS011;11168;56.976;24.168;2022-10-16T14:51:36;39.83;;;26.88;;
22007;SDS011;11168;56.976;24.168;2022-10-16T14:54:04;43.90;;;27.08;;
22007;SDS011;11168;56.976;24.168;2022-10-16T14:56:41;38.15;;;26.83;;
22007;SDS011;11168;56.976;24.168;2022-10-16T14:59:16;40.60;;;28.25;;
22007;SDS011;11168;56.976;24.168;2022-10-16T15:01:45;39.88;;;26.20;;
22007;SDS011;11168;56.976;24.168;2022-10-16T15:04:12;38.63;;;27.38;;
22007;SDS011;11168;56.976;24.168;2022-10-16T15:06:41;39.33;;;26.40;;
22007;SDS011;11168;56.976;24.168;2022-10-16T15:09:09;42.25;;;27.77;;
22007;SDS011;11168;56.976;24.168;2022-10-16T15:11:36;39.13;;;27.95;;
22007;SDS011;11168;56.976;24.168;2022-10-16T15:14:04;39.75;;;27.70;;
22007;SDS011;11168;56.976;24.168;2022-10-16T15:16:31;40.67;;;28.75;;
22007;SDS011;11168;56.976;24.168;2022-10-16T15:18:58;41.15;;;28.60;;
22007;SDS011;11168;56.976;24.168;2022-10-16T15:23:53;42.40;;;29.30;;
22007;SDS011;11168;56.976;24.168;2022-10-16T15:26:23;41.83;;;31.35;;
22007;SDS011;11168;56.976;24.168;2022-10-16T15:28:50;48.75;;;31.65;;
22007;SDS011;11168;56.976;24.168;2022-10-16T15:31:18;47.83;;;32.97;;
22007;SDS011;11168;56.976;24.168;2022-10-16T15:33:45;49.08;;;34.58;;
22007;SDS011;11168;56.976;24.168;2022-10-16T15:36:26;54.53;;;35.95;;
22007;SDS011;11168;56.976;24.168;2022-10-16T15:38:54;54.90;;;33.95;;
22007;SDS011;11168;56.976;24.168;2022-10-16T15:41:21;52.38;;;35.50;;
22007;SDS011;11168;56.976;24.168;2022-10-16T15:43:49;47.40;;;32.60;;
22007;SDS011;11168;56.976;24.168;2022-10-16T15:46:19;53.60;;;35.95;;
22007;SDS011;11168;56.976;24.168;2022-10-16T15:48:47;52.80;;;35.67;;
22007;SDS011;11168;56.976;24.168;2022-10-16T15:51:15;51.30;;;34.55;;
22007;SDS011;11168;56.976;24.168;2022-10-16T15:53:43;51.17;;;35.88;;
22007;SDS011;11168;56.976;24.168;2022-10-16T15:56:12;51.45;;;35.45;;
22007;SDS011;11168;56.976;24.168;2022-10-16T15:58:40;51.10;;;34.63;;
22007;SDS011;11168;56.976;24.168;2022-10-16T16:01:07;53.88;;;36.47;;
22007;SDS011;11168;56.976;24.168;2022-10-16T16:03:37;51.53;;;33.90;;
22007;SDS011;11168;56.976;24.168;2022-10-16T16:06:07;54.45;;;35.80;;
22007;SDS011;11168;56.976;24.168;2022-10-16T16:08:35;51.42;;;34.35;;
22007;SDS011;11168;56.976;24.168;2022-10-16T16:11:06;51.65;;;34.17;;
22007;SDS011;11168;56.976;24.168;2022-10-16T16:13:34;54.15;;;33.85;;
22007;SDS011;11168;56.976;24.168;2022-10-16T16:16:08;48.38;;;32.92;;
22007;SDS011;11168;56.976;24.168;2022-10-16T16:18:35;47.40;;;32.38;;
22007;SDS011;11168;56.976;24.168;2022-10-16T16:21:03;46.63;;;30.42;;
22007;SDS011;11168;56.976;24.168;2022-10-16T16:23:30;48.92;;;31.83;;
22007;SDS011;11168;56.976;24.168;2022-10-16T16:26:11;46.10;;;31.58;;
22007;SDS011;11168;56.976;24.168;2022-10-16T16:28:39;48.05;;;32.25;;
22007;SDS011;11168;56.976;24.168;2022-10-16T16:31:07;48.78;;;33.63;;
22007;SDS011;11168;56.976;24.168;2022-10-16T16:33:34;49.28;;;33.10;;
22007;SDS011;11168;56.976;24.168;2022-10-16T16:36:03;52.67;;;33.50;;
22007;SDS011;11168;56.976;24.168;2022-10-16T16:38:38;55.75;;;34.97;;
22007;SDS011;11168;56.976;24.168;2022-10-16T16:44:07;51.70;;;34.13;;
22007;SDS011;11168;56.976;24.168;2022-10-16T16:46:35;50.63;;;34.60;;